Time;durP1;ratioP1;P1;durP2;ratioP2;P2;SDS_P1;SDS_P2;PMS_P1;PMS_P2;Temp;Humidity;BMP_temperature;BMP_pressure;BME280_temperature;BME280_humidity;BME280_pressure;Samples;Min_cycle;Max_cycle;Signal;HPM_P1;HPM_P2
2022/04/18 00:01:57;;;;;;;0.70;0.30;;;;;;;7.53;78.64;98633.56;4955625;29;20192;-87
2022/04/18 00:04:23;;;;;;;0.20;0.20;;;;;;;7.53;79.01;98633.56;4955360;29;20531;-86
2022/04/18 00:06:51;;;;;;;0.50;0.37;;;;;;;7.56;78.64;98624.75;4938337;29;20621;-87
2022/04/18 00:09:17;;;;;;;0.40;0.27;;;;;;;7.64;79.46;98622.63;4938584;29;20209;-87
2022/04/18 00:11:43;;;;;;;0.83;0.37;;;;;;;7.57;78.53;98622.09;4955224;29;20251;-89
2022/04/18 00:14:09;;;;;;;0.20;0.20;;;;;;;7.37;79.49;98622.19;4955499;29;20187;-87
2022/04/18 00:16:35;;;;;;;0.20;0.20;;;;;;;7.29;80.34;98625.16;4955149;29;20183;-88
2022/04/18 00:19:01;;;;;;;0.20;0.20;;;;;;;7.29;80.73;98629.53;4955397;29;20212;-87
2022/04/18 00:21:26;;;;;;;0.10;0.10;;;;;;;7.29;80.07;98629.53;4955148;29;20181;-88
2022/04/18 00:23:51;;;;;;;0.20;0.20;;;;;;;7.28;80.40;98627.84;4955322;29;20639;-87
2022/04/18 00:26:17;;;;;;;0.37;0.37;;;;;;;7.18;79.26;98632.63;4938430;29;20659;-87
2022/04/18 00:28:42;;;;;;;0.40;0.27;;;;;;;7.37;79.73;98632.63;4954952;29;20275;-87
2022/04/18 00:31:08;;;;;;;0.30;0.30;;;;;;;7.09;79.88;98625.25;4954981;29;20177;-87
2022/04/18 00:33:33;;;;;;;0.43;0.30;;;;;;;7.06;80.21;98627.16;4955220;29;20639;-87
2022/04/18 00:36:00;;;;;;;1.50;0.60;;;;;;;7.12;79.69;98619.91;4954917;29;20181;-87
2022/04/18 00:38:25;;;;;;;0.10;0.10;;;;;;;7.26;79.40;98625.31;4938290;29;20280;-88
2022/04/18 00:40:51;;;;;;;0.20;0.20;;;;;;;7.47;79.39;98618.22;4955169;29;20641;-88
2022/04/18 00:43:16;;;;;;;0.47;0.30;;;;;;;7.31;79.19;98622.50;4954716;28;20271;-87
2022/04/18 00:45:42;;;;;;;0.87;0.50;;;;;;;7.06;80.13;98616.72;4955009;29;20636;-88
2022/04/18 00:48:07;;;;;;;1.70;0.43;;;;;;;7.03;80.71;98620.31;4955021;29;20200;-88
2022/04/18 00:50:35;;;;;;;1.07;0.30;;;;;;;6.72;82.10;98618.28;4954776;29;20672;-87
2022/04/18 00:53:02;;;;;;;0.87;0.30;;;;;;;6.95;81.18;98608.56;4938151;29;20191;-87
2022/04/18 00:55:29;;;;;;;0.20;0.20;;;;;;;6.96;81.27;98605.06;4937823;29;20188;-88
2022/04/18 00:57:55;;;;;;;0.30;0.30;;;;;;;6.97;80.80;98615.38;4938387;28;20177;-87
2022/04/18 01:00:22;;;;;;;0.50;0.40;;;;;;;6.80;81.46;98604.91;4958280;29;20173;-88
2022/04/18 01:02:47;;;;;;;0.20;0.20;;;;;;;6.91;81.26;98602.66;4941682;29;20192;-88
2022/04/18 01:05:13;;;;;;;0.20;0.20;;;;;;;6.97;80.98;98606.75;4958854;29;20235;-88
2022/04/18 01:07:40;;;;;;;0.23;0.23;;;;;;;7.06;80.49;98601.94;4941928;29;20184;-88
2022/04/18 01:10:06;;;;;;;0.10;0.10;;;;;;;7.00;81.29;98601.38;4958433;29;20776;-87
2022/04/18 01:12:32;;;;;;;0.27;0.27;;;;;;;7.26;80.46;98595.78;4958415;29;20188;-88
2022/04/18 01:14:58;;;;;;;0.20;0.20;;;;;;;7.39;79.71;98594.28;4941725;29;20181;-87
2022/04/18 01:17:24;;;;;;;0.13;0.13;;;;;;;7.35;79.50;98603.16;4941713;29;20185;-87
2022/04/18 01:19:50;;;;;;;0.47;0.20;;;;;;;7.43;79.67;98601.91;4958879;29;20181;-87
2022/04/18 01:22:18;;;;;;;0.20;0.20;;;;;;;7.58;78.80;98597.69;4958591;29;20181;-87
2022/04/18 01:30:12;;;;;;;0.20;0.20;;;;;;;7.85;77.72;98582.44;4958421;29;20679;-87
2022/04/18 01:32:38;;;;;;;0.20;0.20;;;;;;;7.82;77.52;98580.81;4941427;29;20176;-87
2022/04/18 01:35:04;;;;;;;0.17;0.10;;;;;;;7.88;77.22;98582.28;4958332;29;20177;-88
2022/04/18 01:37:30;;;;;;;0.10;0.10;;;;;;;7.87;77.39;98580.59;4958345;29;20181;-88
2022/04/18 01:39:56;;;;;;;0.10;0.10;;;;;;;7.89;76.38;98573.50;4958226;29;20255;-88
2022/04/18 01:42:21;;;;;;;0.10;0.10;;;;;;;7.75;77.70;98584.66;4941149;29;20595;-87
2022/04/18 01:44:47;;;;;;;0.10;0.10;;;;;;;7.71;77.54;98583.13;4957925;29;20170;-87
2022/04/18 01:47:12;;;;;;;0.20;0.20;;;;;;;7.61;77.78;98584.50;4941767;29;20189;-87
2022/04/18 01:49:38;;;;;;;0.57;0.23;;;;;;;7.58;78.32;98583.78;4957952;29;20204;-87
2022/04/18 01:52:03;;;;;;;0.13;0.13;;;;;;;7.57;78.74;98580.38;4941334;29;20520;-87
2022/04/18 01:54:29;;;;;;;0.53;0.27;;;;;;;7.44;79.57;98582.69;4940953;29;20180;-87
2022/04/18 01:56:54;;;;;;;0.30;0.20;;;;;;;7.48;80.47;98585.16;4940981;29;20192;-87
2022/04/18 01:59:20;;;;;;;0.60;0.27;;;;;;;7.39;80.29;98579.47;4941257;29;20180;-87
2022/04/18 02:01:45;;;;;;;2.03;0.97;;;;;;;7.35;80.89;98577.94;4957836;29;20207;-87
2022/04/18 02:04:11;;;;;;;0.20;0.20;;;;;;;7.18;81.47;98567.47;4957511;29;20185;-87
2022/04/18 02:06:36;;;;;;;0.83;0.40;;;;;;;7.34;80.47;98567.59;4940503;29;20268;-89
2022/04/18 02:09:02;;;;;;;0.10;0.10;;;;;;;7.28;81.33;98566.16;4940391;29;20548;-87
2022/04/18 02:11:28;;;;;;;0.10;0.10;;;;;;;7.34;80.90;98570.19;4957606;28;20188;-88
2022/04/18 02:13:53;;;;;;;0.50;0.30;;;;;;;7.44;80.68;98574.88;4957342;29;20687;-88
2022/04/18 02:16:19;;;;;;;0.67;0.33;;;;;;;7.39;80.54;98563.84;4957570;29;20181;-87
2022/04/18 02:18:46;;;;;;;0.10;0.10;;;;;;;7.32;80.42;98569.44;4957224;29;20184;-87
2022/04/18 02:21:16;;;;;;;1.50;0.60;;;;;;;7.21;80.91;98566.47;4957741;29;20637;-87
2022/04/18 02:23:42;;;;;;;0.30;0.20;;;;;;;7.08;81.42;98574.06;4957439;29;20200;-87
2022/04/18 02:26:08;;;;;;;0.20;0.20;;;;;;;6.97;83.21;98580.69;4957176;29;20712;-88
2022/04/18 02:28:35;;;;;;;0.70;0.53;;;;;;;6.89;84.07;98575.84;4940039;29;20299;-87
2022/04/18 02:31:02;;;;;;;0.20;0.20;;;;;;;7.17;82.64;98573.63;4957023;29;20212;-88
2022/04/18 02:33:27;;;;;;;0.13;0.13;;;;;;;7.12;81.58;98577.38;4957246;29;20263;-87
2022/04/18 02:35:53;;;;;;;0.87;0.60;;;;;;;7.04;81.99;98575.13;4956953;29;20181;-87
2022/04/18 02:38:19;;;;;;;0.37;0.30;;;;;;;7.13;82.26;98576.44;4957164;29;20196;-88
2022/04/18 02:40:45;;;;;;;0.57;0.20;;;;;;;7.22;81.52;98570.78;4956833;29;20185;-88
2022/04/18 02:43:11;;;;;;;0.50;0.30;;;;;;;7.12;80.96;98573.00;4956719;28;20225;-89
2022/04/18 02:45:36;;;;;;;0.23;0.20;;;;;;;7.05;80.69;98573.38;4939805;29;20192;-87
2022/04/18 02:48:02;;;;;;;0.30;0.30;;;;;;;6.97;81.10;98580.69;4956981;29;20271;-87
2022/04/18 02:50:27;;;;;;;0.60;0.30;;;;;;;6.99;81.07;98577.09;4956590;29;20223;-88
2022/04/18 02:52:53;;;;;;;0.40;0.30;;;;;;;6.86;82.13;98577.75;4956673;29;20268;-88
2022/04/18 02:55:19;;;;;;;0.40;0.30;;;;;;;6.99;81.06;98571.03;4956551;29;20188;-87
2022/04/18 02:57:45;;;;;;;1.17;0.30;;;;;;;7.13;81.24;98571.22;4956878;29;20636;-88
2022/04/18 03:00:11;;;;;;;0.80;0.40;;;;;;;7.19;80.52;98573.53;4939551;29;20181;-88
2022/04/18 03:02:38;;;;;;;0.30;0.30;;;;;;;7.33;80.62;98576.34;4939554;29;20276;-87
2022/04/18 03:05:06;;;;;;;0.10;0.10;;;;;;;7.20;80.37;98577.84;4956720;29;20181;-87
2022/04/18 03:07:32;;;;;;;0.30;0.20;;;;;;;7.08;81.34;98576.66;4956384;29;20633;-87
2022/04/18 03:09:57;;;;;;;0.20;0.20;;;;;;;7.18;80.89;98579.69;4939632;29;20208;-87
2022/04/18 03:12:24;;;;;;;1.60;0.60;;;;;;;7.23;80.75;98575.09;4939724;29;20196;-87
2022/04/18 03:14:50;;;;;;;0.70;0.40;;;;;;;6.99;81.99;98578.88;4939578;29;20177;-88
2022/04/18 03:17:16;;;;;;;0.30;0.30;;;;;;;6.96;82.98;98568.59;4939607;29;20185;-87
2022/04/18 03:19:41;;;;;;;0.20;0.20;;;;;;;7.13;81.63;98571.22;4956441;29;20173;-88
2022/04/18 03:22:07;;;;;;;0.40;0.40;;;;;;;7.09;82.07;98580.97;4938951;29;20188;-87
2022/04/18 03:24:33;;;;;;;0.60;0.40;;;;;;;7.19;81.87;98560.50;4956115;29;20220;-88
2022/04/18 03:27:00;;;;;;;4.90;0.30;;;;;;;7.19;81.99;98574.38;4939429;29;20185;-87
2022/04/18 03:29:25;;;;;;;0.20;0.20;;;;;;;7.23;81.89;98577.72;4955904;29;20214;-88
2022/04/18 03:31:52;;;;;;;0.20;0.20;;;;;;;7.06;82.33;98585.47;4956086;29;20181;-87
2022/04/18 03:34:18;;;;;;;0.70;0.47;;;;;;;7.14;82.12;98578.13;4955855;29;20191;-87
2022/04/18 03:42:11;;;;;;;1.13;0.50;;;;;;;7.14;82.18;98572.91;4955647;28;20243;-88
2022/04/18 03:44:43;;;;;;;0.83;0.50;;;;;;;7.04;83.44;98575.13;4956027;29;20170;-89
2022/04/18 03:47:09;;;;;;;1.10;0.80;;;;;;;7.12;83.76;98572.16;4956179;29;20237;-88
2022/04/18 03:49:35;;;;;;;0.50;0.50;;;;;;;7.25;82.92;98570.66;4955772;29;20279;-90
2022/04/18 03:52:00;;;;;;;4.43;1.63;;;;;;;7.20;81.93;98583.06;4955598;29;20633;-89
2022/04/18 03:54:26;;;;;;;1.90;0.67;;;;;;;7.40;82.36;98570.75;4956085;29;20195;-89
2022/04/18 03:56:51;;;;;;;3.73;1.33;;;;;;;7.31;81.89;98575.56;4956002;29;20181;-89
2022/04/18 03:59:17;;;;;;;0.20;0.20;;;;;;;7.22;82.08;98565.59;4938819;29;20694;-89
2022/04/18 04:01:42;;;;;;;1.03;0.47;;;;;;;7.20;82.90;98575.25;4955692;29;20271;-89
2022/04/18 04:04:08;;;;;;;0.20;0.20;;;;;;;7.30;81.85;98584.31;4955319;29;20629;-89
2022/04/18 04:06:33;;;;;;;0.30;0.23;;;;;;;7.28;81.58;98579.19;4955627;29;20185;-89
2022/04/18 04:08:59;;;;;;;24.83;1.80;;;;;;;7.36;81.67;98570.97;4938555;29;20235;-88
2022/04/18 04:11:25;;;;;;;1.53;0.60;;;;;;;7.54;81.15;98567.47;4938917;29;20648;-88
2022/04/18 04:13:51;;;;;;;0.90;0.73;;;;;;;7.48;80.52;98572.13;4938317;29;20184;-88
2022/04/18 04:16:18;;;;;;;0.90;0.60;;;;;;;7.65;80.81;98574.78;4955145;29;20192;-88
2022/04/18 04:18:43;;;;;;;1.60;0.53;;;;;;;7.80;80.77;98561.81;4955220;29;20173;-88
2022/04/18 04:21:09;;;;;;;1.90;0.60;;;;;;;7.81;79.80;98566.06;4955421;29;20188;-89
2022/04/18 04:23:34;;;;;;;1.60;1.23;;;;;;;7.90;80.33;98556.94;4955089;29;20185;-88
2022/04/18 04:26:00;;;;;;;2.43;0.67;;;;;;;7.82;80.43;98562.56;4955058;29;20274;-88
2022/04/18 04:28:25;;;;;;;1.47;0.43;;;;;;;7.95;80.14;98563.63;4938330;29;20334;-88
2022/04/18 04:30:51;;;;;;;0.63;0.30;;;;;;;7.82;79.34;98557.34;4955003;29;20589;-88
2022/04/18 04:33:16;;;;;;;0.73;0.53;;;;;;;7.65;80.14;98579.97;4954224;28;20610;-89
2022/04/18 04:35:42;;;;;;;1.07;0.73;;;;;;;7.74;80.06;98579.50;4955153;29;20549;-89
2022/04/18 04:38:07;;;;;;;0.63;0.50;;;;;;;7.63;80.06;98582.66;4954945;29;20173;-90
2022/04/18 04:40:33;;;;;;;1.33;0.50;;;;;;;7.67;80.29;98581.59;4954876;29;20629;-89
2022/04/18 04:42:58;;;;;;;2.33;0.40;;;;;;;7.61;80.37;98584.50;4938100;29;20229;-88
2022/04/18 04:45:24;;;;;;;0.63;0.50;;;;;;;7.56;80.48;98578.66;4938237;29;20181;-89
2022/04/18 04:47:50;;;;;;;0.97;0.40;;;;;;;7.55;81.55;98581.34;4937870;29;20268;-89
2022/04/18 04:50:15;;;;;;;1.27;0.77;;;;;;;7.51;81.35;98583.25;4955067;29;20287;-89
2022/04/18 04:52:40;;;;;;;0.93;0.40;;;;;;;7.60;81.21;98588.00;4954789;29;20629;-88
2022/04/18 04:55:08;;;;;;;1.37;0.50;;;;;;;7.71;81.42;98585.72;4955107;29;20263;-89
2022/04/18 04:57:34;;;;;;;0.33;0.33;;;;;;;7.66;81.00;98585.09;4954782;29;20173;-89
2022/04/18 04:59:59;;;;;;;0.50;0.40;;;;;;;7.66;81.18;98586.88;4954984;29;20165;-89
2022/04/18 05:02:25;;;;;;;0.70;0.50;;;;;;;7.48;82.24;98583.41;4954728;29;20177;-89
2022/04/18 05:04:51;;;;;;;1.57;0.90;;;;;;;7.51;82.31;98583.25;4954735;29;20543;-90
2022/04/18 05:07:16;;;;;;;0.73;0.50;;;;;;;7.39;82.34;98576.03;4937735;29;20185;-88
2022/04/18 05:09:42;;;;;;;1.07;0.70;;;;;;;7.58;82.10;98587.25;4954855;29;20524;-89
2022/04/18 05:12:09;;;;;;;1.90;0.73;;;;;;;7.41;82.74;98588.09;4938061;29;20259;-89
2022/04/18 05:14:34;;;;;;;1.77;0.90;;;;;;;7.56;82.43;98589.09;4954930;29;20173;-88
2022/04/18 05:17:01;;;;;;;0.70;0.47;;;;;;;7.66;81.83;98592.09;4954848;29;20204;-88
2022/04/18 05:19:27;;;;;;;0.80;0.57;;;;;;;7.68;82.51;98588.47;4954578;29;20188;-88
2022/04/18 05:21:53;;;;;;;0.93;0.60;;;;;;;7.61;81.85;98597.53;4954880;29;20173;-89
2022/04/18 05:24:18;;;;;;;0.80;0.43;;;;;;;7.64;82.23;98602.59;4954757;29;20192;-89
2022/04/18 05:26:46;;;;;;;1.47;0.77;;;;;;;7.59;82.94;98591.56;4954501;29;20280;-88
2022/04/18 05:29:12;;;;;;;0.93;0.47;;;;;;;7.66;81.79;98608.59;4954680;29;20213;-89
2022/04/18 05:31:37;;;;;;;0.77;0.43;;;;;;;7.52;83.06;98600.56;4954979;29;20720;-90
2022/04/18 05:34:03;;;;;;;0.40;0.40;;;;;;;7.46;82.74;98595.69;4954457;29;20645;-88
2022/04/18 05:36:29;;;;;;;0.50;0.40;;;;;;;7.51;83.48;98587.63;4954835;29;20184;-89
2022/04/18 05:38:55;;;;;;;0.67;0.53;;;;;;;7.49;83.06;98598.16;4954663;29;20188;-89
2022/04/18 05:41:20;;;;;;;1.13;0.73;;;;;;;7.32;84.07;98592.88;4954629;29;20645;-89
2022/04/18 05:43:49;;;;;;;0.70;0.40;;;;;;;7.35;83.69;98597.97;4937369;29;20190;-87
2022/04/18 05:46:15;;;;;;;2.40;0.93;;;;;;;7.41;84.08;98597.66;4957122;28;20177;-88
2022/04/18 05:48:40;;;;;;;1.50;0.73;;;;;;;7.66;83.57;98592.94;4957987;29;20543;-89
2022/04/18 05:51:06;;;;;;;1.70;1.17;;;;;;;7.78;83.08;98597.53;4957786;29;20177;-89
2022/04/18 05:53:31;;;;;;;0.50;0.43;;;;;;;7.46;82.26;98595.69;4957689;29;20181;-87
2022/04/18 05:55:57;;;;;;;1.13;0.40;;;;;;;7.24;82.73;98598.47;4957708;29;20660;-90
2022/04/18 05:58:22;;;;;;;0.30;0.30;;;;;;;7.26;84.19;98606.19;4957861;29;20580;-90
2022/04/18 06:00:47;;;;;;;1.17;0.73;;;;;;;7.32;84.34;98611.13;4940670;29;20185;-88
2022/04/18 06:03:13;;;;;;;0.30;0.30;;;;;;;7.41;83.07;98613.31;4940927;29;20177;-88
2022/04/18 06:05:39;;;;;;;0.43;0.40;;;;;;;7.31;83.80;98601.66;4957489;29;20338;-88
2022/04/18 06:08:05;;;;;;;0.63;0.47;;;;;;;7.24;84.31;98610.66;4957351;29;20691;-88
2022/04/18 06:10:30;;;;;;;0.50;0.30;;;;;;;7.25;85.06;98607.13;4957579;29;20200;-88
2022/04/18 06:12:55;;;;;;;0.30;0.23;;;;;;;7.52;83.58;98616.22;4957683;29;20208;-88
2022/04/18 06:15:21;;;;;;;0.47;0.33;;;;;;;7.70;83.48;98617.97;4957571;29;20251;-88
2022/04/18 06:17:46;;;;;;;0.27;0.20;;;;;;;7.53;83.49;98611.84;4957341;29;20208;-89
2022/04/18 06:20:12;;;;;;;0.27;0.20;;;;;;;7.53;83.57;98623.16;4940541;29;20185;-88
2022/04/18 06:22:37;;;;;;;0.30;0.30;;;;;;;7.56;82.64;98616.94;4957404;29;20218;-89
2022/04/18 06:25:03;;;;;;;0.20;0.20;;;;;;;7.57;82.63;98622.09;4957660;29;20256;-88
2022/04/18 06:27:29;;;;;;;0.77;0.30;;;;;;;7.79;82.32;98616.66;4957137;29;20238;-88
2022/04/18 06:29:54;;;;;;;0.30;0.30;;;;;;;7.81;80.97;98617.41;4957010;29;20200;-89
2022/04/18 06:32:21;;;;;;;0.10;0.10;;;;;;;7.70;81.15;98624.94;4940145;29;20203;-89
2022/04/18 06:34:47;;;;;;;0.40;0.30;;;;;;;7.69;80.74;98624.09;4956961;29;20483;-88
2022/04/18 06:37:12;;;;;;;0.63;0.40;;;;;;;7.90;81.24;98628.25;4956978;29;20173;-88
2022/04/18 06:39:38;;;;;;;0.30;0.30;;;;;;;7.74;80.57;98629.06;4957184;29;20181;-90
2022/04/18 06:42:05;;;;;;;0.20;0.20;;;;;;;7.74;81.23;98629.91;4956794;28;20192;-89
2022/04/18 06:44:30;;;;;;;0.40;0.33;;;;;;;7.91;81.84;98629.91;4957421;29;20240;-89
2022/04/18 06:46:56;;;;;;;0.67;0.40;;;;;;;7.70;79.97;98636.22;4957093;29;20197;-89
2022/04/18 06:49:21;;;;;;;0.50;0.20;;;;;;;7.59;81.00;98641.09;4956637;29;20652;-89
2022/04/18 06:51:46;;;;;;;0.27;0.27;;;;;;;7.45;80.99;98643.53;4939742;29;20181;-89
2022/04/18 06:54:12;;;;;;;0.93;0.20;;;;;;;7.73;81.35;98643.88;4939752;29;20177;-88
2022/04/18 06:59:22;;;;;;;0.60;0.30;;;;;;;8.03;80.25;98644.97;4956588;29;20228;-90
2022/04/18 07:01:47;;;;;;;0.20;0.20;;;;;;;8.04;80.80;98643.22;4939512;29;20185;-89
2022/04/18 07:04:13;;;;;;;0.87;0.60;;;;;;;8.27;80.58;98642.94;4939842;29;20188;-89
2022/04/18 07:06:42;;;;;;;0.37;0.37;;;;;;;8.38;79.94;98647.59;4956657;29;20264;-89
2022/04/18 07:09:08;;;;;;;0.70;0.40;;;;;;;8.55;78.94;98647.56;4939339;29;20625;-89
2022/04/18 07:11:33;;;;;;;0.60;0.37;;;;;;;8.60;78.87;98645.56;4956627;29;20220;-89
2022/04/18 07:13:59;;;;;;;1.07;0.70;;;;;;;8.64;78.54;98647.94;4956252;29;20652;-88
2022/04/18 07:16:24;;;;;;;4.57;0.77;;;;;;;8.58;77.24;98655.25;4939299;29;20191;-89
2022/04/18 07:18:50;;;;;;;1.13;0.67;;;;;;;8.67;77.63;98657.38;4956150;29;20184;-90
2022/04/18 07:21:15;;;;;;;0.63;0.30;;;;;;;8.70;77.69;98657.19;4956014;29;20630;-89
2022/04/18 07:23:41;;;;;;;0.70;0.40;;;;;;;8.89;76.96;98652.69;4956339;29;20695;-90
2022/04/18 07:26:06;;;;;;;3.20;0.77;;;;;;;8.84;77.83;98662.56;4956071;29;20180;-90
2022/04/18 07:28:32;;;;;;;2.30;0.70;;;;;;;8.82;77.67;98660.94;4955975;29;20181;-90
2022/04/18 07:30:57;;;;;;;0.87;0.53;;;;;;;8.73;77.88;98662.28;4956227;29;20177;-89
2022/04/18 07:33:23;;;;;;;5.50;1.97;;;;;;;8.70;76.95;98661.59;4955881;29;20173;-89
2022/04/18 07:35:48;;;;;;;1.80;0.80;;;;;;;8.77;77.03;98668.19;4956120;29;20549;-89
2022/04/18 07:41:04;;;;;;;0.77;0.47;;;;;;;8.44;77.88;98683.81;4955883;29;20176;-89
2022/04/18 07:43:31;;;;;;;0.20;0.20;;;;;;;8.32;77.43;98684.47;4955756;28;20348;-89
2022/04/18 07:45:56;;;;;;;0.43;0.40;;;;;;;8.40;79.53;98680.53;4938704;29;20539;-89
2022/04/18 07:48:21;;;;;;;1.20;0.30;;;;;;;8.30;79.58;98691.53;4955656;29;20185;-90
2022/04/18 07:53:32;;;;;;;0.37;0.33;;;;;;;8.24;79.15;98681.34;4955915;29;20276;-90
2022/04/18 07:55:57;;;;;;;2.13;0.40;;;;;;;8.17;80.34;98691.28;4955539;29;20172;-89
2022/04/18 07:58:23;;;;;;;0.30;0.30;;;;;;;8.43;80.35;98692.59;4955491;29;20240;-89
2022/04/18 08:00:48;;;;;;;0.30;0.20;;;;;;;8.45;79.58;98698.59;4955431;29;20612;-89
2022/04/18 08:03:16;;;;;;;0.83;0.50;;;;;;;8.48;80.12;98699.28;4955402;29;20181;-88
2022/04/18 08:05:42;;;;;;;0.50;0.50;;;;;;;8.34;79.70;98695.66;4955334;29;20170;-89
2022/04/18 08:08:07;;;;;;;0.70;0.20;;;;;;;8.40;79.66;98698.81;4955291;28;20253;-91
2022/04/18 08:10:36;;;;;;;0.20;0.20;;;;;;;8.23;80.58;98698.78;4955278;29;20291;-90
2022/04/18 08:13:03;;;;;;;0.20;0.20;;;;;;;8.32;80.97;98694.91;4955211;29;20279;-88
2022/04/18 08:15:28;;;;;;;0.30;0.30;;;;;;;8.47;80.07;98705.41;4955210;29;20717;-89
2022/04/18 08:17:53;;;;;;;0.40;0.20;;;;;;;8.51;79.42;98706.97;4955188;29;20256;-89
2022/04/18 08:20:19;;;;;;;0.20;0.20;;;;;;;8.74;79.52;98703.16;4955391;29;20195;-89
2022/04/18 08:22:45;;;;;;;0.10;0.10;;;;;;;8.70;79.92;98703.41;4938180;29;20213;-88
2022/04/18 08:25:11;;;;;;;0.50;0.20;;;;;;;8.75;80.14;98701.41;4955065;29;20258;-89
2022/04/18 08:27:36;;;;;;;0.87;0.37;;;;;;;8.62;78.31;98704.63;4938856;29;20221;-89
2022/04/18 08:30:04;;;;;;;0.20;0.20;;;;;;;8.51;79.47;98704.34;4938120;29;20201;-89
2022/04/18 08:32:41;;;;;;;0.20;0.20;;;;;;;8.42;78.03;98704.81;4954959;29;20177;-90
2022/04/18 08:35:08;;;;;;;0.20;0.20;;;;;;;8.36;78.52;98712.94;4955069;29;20166;-89
2022/04/18 08:37:34;;;;;;;0.20;0.20;;;;;;;8.61;78.17;98708.19;4938361;29;20534;-88
2022/04/18 08:40:01;;;;;;;0.20;0.20;;;;;;;8.69;78.54;98705.16;4954907;29;20241;-88
2022/04/18 08:42:33;;;;;;;0.40;0.30;;;;;;;8.49;78.19;98708.78;4954754;28;20227;-88
2022/04/18 08:45:01;;;;;;;0.90;0.40;;;;;;;8.52;78.81;98718.22;4955421;29;20170;-88
2022/04/18 08:52:56;;;;;;;0.23;0.23;;;;;;;8.64;78.44;98725.47;4955555;29;20620;-89
2022/04/18 08:55:23;;;;;;;0.37;0.37;;;;;;;8.86;78.07;98714.72;4954772;29;20177;-89
2022/04/18 08:57:48;;;;;;;0.70;0.30;;;;;;;8.67;77.67;98714.88;4954749;29;20273;-90
2022/04/18 09:00:14;;;;;;;0.20;0.20;;;;;;;8.49;78.21;98716.63;4954751;29;20202;-88
2022/04/18 09:02:39;;;;;;;0.57;0.40;;;;;;;8.63;77.84;98713.31;4938000;29;20522;-88
2022/04/18 09:05:14;;;;;;;0.20;0.20;;;;;;;8.42;78.79;98719.63;4954688;29;20251;-88
2022/04/18 09:07:44;;;;;;;0.40;0.30;;;;;;;8.55;78.96;98710.25;4955241;29;20170;-88
2022/04/18 09:10:11;;;;;;;0.30;0.30;;;;;;;8.61;78.48;98712.56;4954906;29;20208;-88
2022/04/18 09:12:42;;;;;;;0.40;0.33;;;;;;;8.65;78.06;98711.47;4954636;29;20194;-88
2022/04/18 09:15:09;;;;;;;0.47;0.40;;;;;;;8.57;78.63;98718.84;4954895;29;20248;-87
2022/04/18 09:17:36;;;;;;;1.10;0.50;;;;;;;8.62;79.00;98711.66;4954564;29;20630;-88
2022/04/18 09:20:06;;;;;;;0.40;0.40;;;;;;;8.62;78.85;98714.25;4955947;28;20174;-88
2022/04/18 09:22:42;;;;;;;2.47;1.90;;;;;;;8.88;78.78;98710.28;4958292;29;20177;-88
2022/04/18 09:25:21;;;;;;;1.17;0.53;;;;;;;8.82;79.08;98708.84;4958593;29;20623;-89
2022/04/18 09:27:55;;;;;;;0.50;0.40;;;;;;;8.90;79.01;98716.28;4941558;29;20180;-88
2022/04/18 09:30:21;;;;;;;1.60;0.40;;;;;;;9.10;78.93;98716.06;4958085;29;20233;-88
2022/04/18 09:32:59;;;;;;;0.60;0.30;;;;;;;9.09;76.91;98712.59;4958085;29;20458;-88
2022/04/18 09:35:26;;;;;;;0.90;0.43;;;;;;;9.13;76.64;98714.13;4958589;29;20182;-89
2022/04/18 09:37:55;;;;;;;0.20;0.20;;;;;;;9.00;77.37;98717.47;4958335;29;20178;-88
2022/04/18 09:40:24;;;;;;;0.87;0.40;;;;;;;8.91;76.06;98716.19;4957969;29;20178;-88
2022/04/18 09:42:55;;;;;;;2.40;1.17;;;;;;;8.85;76.84;98728.72;4957749;28;20387;-88
2022/04/18 09:45:21;;;;;;;5.23;1.97;;;;;;;8.92;76.51;98715.25;4957873;29;20185;-88
2022/04/18 09:48:02;;;;;;;5.70;1.10;;;;;;;8.97;75.69;98723.69;4957868;29;20192;-88
2022/04/18 09:53:20;;;;;;;1.03;0.63;;;;;;;8.77;75.94;98721.28;4958097;29;20239;-88
2022/04/18 09:55:47;;;;;;;1.10;0.40;;;;;;;8.90;76.76;98727.56;4958009;29;20166;-88
2022/04/18 09:58:13;;;;;;;1.33;0.90;;;;;;;8.91;76.18;98724.03;4957693;29;20217;-88
2022/04/18 10:00:41;;;;;;;0.30;0.27;;;;;;;9.00;76.03;98723.53;4957627;29;20192;-88
2022/04/18 10:03:07;;;;;;;0.57;0.30;;;;;;;9.05;76.52;98733.75;4957630;29;20259;-88
2022/04/18 10:05:33;;;;;;;0.37;0.30;;;;;;;8.75;76.02;98732.75;4957818;29;20193;-88
2022/04/18 10:08:03;;;;;;;1.63;0.50;;;;;;;8.68;76.71;98737.44;4957766;29;20585;-88
2022/04/18 10:10:31;;;;;;;0.40;0.30;;;;;;;8.70;75.81;98734.75;4957640;29;20220;-89
2022/04/18 10:12:57;;;;;;;0.47;0.20;;;;;;;8.55;77.17;98738.97;4957387;29;20268;-87
2022/04/18 10:15:23;;;;;;;1.40;0.60;;;;;;;8.54;77.46;98735.50;4957628;29;20260;-89
2022/04/18 10:17:50;;;;;;;0.33;0.30;;;;;;;8.60;76.88;98736.97;4957612;29;20197;-88
2022/04/18 10:20:53;;;;;;;0.70;0.50;;;;;;;8.91;77.26;98737.09;4957497;29;20184;-89
2022/04/18 10:23:54;;;;;;;0.60;0.43;;;;;;;9.17;77.31;98739.16;4957254;29;20185;-88
2022/04/18 10:26:56;;;;;;;2.03;0.70;;;;;;;9.31;77.02;98743.66;4957220;29;20166;-87
2022/04/18 10:29:29;;;;;;;1.07;0.80;;;;;;;9.18;76.22;98740.88;4957562;29;20203;-88
2022/04/18 10:31:55;;;;;;;1.70;0.80;;;;;;;9.33;77.05;98741.00;4955832;28;20175;-88
2022/04/18 10:34:24;;;;;;;0.60;0.40;;;;;;;9.43;77.12;98729.09;4957035;29;20181;-87
2022/04/18 10:36:54;;;;;;;1.90;0.30;;;;;;;9.67;76.59;98735.63;4940005;29;20269;-88
2022/04/18 10:39:20;;;;;;;0.70;0.40;;;;;;;9.83;75.11;98736.44;4940025;29;20241;-87
2022/04/18 10:41:48;;;;;;;0.60;0.40;;;;;;;9.81;76.36;98733.06;4956772;28;20189;-87
2022/04/18 10:44:18;;;;;;;1.33;0.50;;;;;;;9.81;74.96;98738.28;4956942;29;20172;-88
2022/04/18 10:46:55;;;;;;;0.57;0.37;;;;;;;9.87;74.75;98735.34;4956989;29;20251;-88
2022/04/18 10:49:31;;;;;;;0.50;0.37;;;;;;;10.03;75.30;98728.31;4957230;29;20534;-88
2022/04/18 10:52:05;;;;;;;1.17;0.50;;;;;;;10.15;74.41;98719.78;4957048;29;20168;-88
2022/04/18 10:54:30;;;;;;;0.47;0.30;;;;;;;10.22;74.12;98731.59;4956957;29;20522;-87
2022/04/18 10:57:06;;;;;;;0.80;0.50;;;;;;;10.10;72.70;98727.03;4956633;29;20182;-88
2022/04/18 10:59:36;;;;;;;1.23;0.70;;;;;;;10.12;72.87;98721.69;4957111;29;20180;-89
2022/04/18 11:02:06;;;;;;;0.33;0.30;;;;;;;10.08;73.58;98723.66;4956504;29;20180;-88
2022/04/18 11:04:42;;;;;;;0.90;0.60;;;;;;;10.24;73.18;98721.88;4957083;29;20248;-88
2022/04/18 11:07:11;;;;;;;0.43;0.30;;;;;;;10.21;72.04;98721.22;4956463;29;20242;-88
2022/04/18 11:09:42;;;;;;;0.40;0.23;;;;;;;10.11;73.41;98722.63;4956321;29;20201;-88
2022/04/18 11:12:13;;;;;;;0.73;0.53;;;;;;;10.07;73.20;98724.56;4956387;29;20179;-88
2022/04/18 11:14:38;;;;;;;0.73;0.43;;;;;;;10.31;73.76;98719.75;4939430;29;20196;-88
2022/04/18 11:17:06;;;;;;;1.17;0.80;;;;;;;10.32;73.22;98714.44;4956488;29;20528;-88
2022/04/18 11:19:36;;;;;;;2.60;1.13;;;;;;;10.44;74.41;98723.31;4956123;29;20647;-88
2022/04/18 11:22:15;;;;;;;0.97;0.67;;;;;;;10.47;72.36;98718.75;4956195;29;20248;-88
2022/04/18 11:24:51;;;;;;;0.80;0.67;;;;;;;10.60;72.15;98718.03;4956118;29;20248;-88
2022/04/18 11:27:22;;;;;;;1.80;0.60;;;;;;;10.31;69.86;98719.75;4956675;29;20268;-88
2022/04/18 11:29:57;;;;;;;0.57;0.30;;;;;;;10.20;70.46;98725.59;4955922;29;20204;-88
2022/04/18 11:32:45;;;;;;;1.00;0.40;;;;;;;10.24;72.14;98724.50;4956226;29;20177;-88
2022/04/18 11:35:11;;;;;;;0.93;0.60;;;;;;;10.40;71.69;98714.78;4955802;29;20192;-88
2022/04/18 11:37:44;;;;;;;2.37;0.60;;;;;;;10.46;70.71;98719.69;4955892;29;20241;-88
2022/04/18 11:40:12;;;;;;;0.40;0.40;;;;;;;10.49;72.07;98711.66;4938900;29;20181;-87
2022/04/18 11:42:40;;;;;;;1.20;0.47;;;;;;;10.44;70.19;98712.84;4955426;28;20212;-88
2022/04/18 11:45:10;;;;;;;0.33;0.30;;;;;;;10.29;71.16;98714.59;4956246;29;20180;-88
2022/04/18 11:47:40;;;;;;;0.53;0.40;;;;;;;10.35;70.56;98708.97;4955920;29;20175;-88
2022/04/18 11:50:08;;;;;;;0.83;0.60;;;;;;;10.48;70.79;98709.94;4955910;29;20192;-87
2022/04/18 11:52:41;;;;;;;0.40;0.30;;;;;;;10.79;70.99;98697.66;4955641;29;20188;-88
2022/04/18 11:55:15;;;;;;;1.30;0.50;;;;;;;10.90;70.72;98696.06;4939002;29;20262;-90
2022/04/18 11:57:43;;;;;;;1.07;0.50;;;;;;;10.98;71.15;98698.22;4938552;29;20257;-88
2022/04/18 12:00:12;;;;;;;0.67;0.43;;;;;;;11.07;72.97;98700.28;4955490;29;20230;-88
2022/04/18 12:08:10;;;;;;;1.17;0.33;;;;;;;11.28;66.60;98688.47;4955965;29;20191;-88
2022/04/18 12:10:38;;;;;;;1.30;0.50;;;;;;;11.22;68.34;98701.09;4955892;29;20225;-88
2022/04/18 12:13:06;;;;;;;1.20;0.90;;;;;;;11.46;67.99;98689.94;4955333;29;20236;-89
2022/04/18 12:15:34;;;;;;;0.77;0.37;;;;;;;11.36;64.11;98688.81;4955313;29;20185;-89